Time,TemperatureF,DewpointF,PressureIn,WindDirection,WindDirectionDegrees,WindSpeedMPH,WindSpeedGustMPH,Humidity,HourlyPrecipIn,Conditions,Clouds,dailyrainin,SoftwareType,DateUTC
2013-04-09 00:03:00,61.0,46.0,29.91,South,181,1.0,3.0,57,0.00,,,0.00,,2013-04-09 04:03:00,
2013-04-09 00:13:00,61.0,46.0,29.91,South,181,1.0,3.0,57,0.00,,,0.00,,2013-04-09 04:13:00,
2013-04-09 00:23:00,61.0,45.0,29.91,SSE,159,3.0,5.0,56,0.00,,,0.00,,2013-04-09 04:23:00,
2013-04-09 00:32:00,62.0,46.0,29.91,SW,222,2.0,5.0,56,0.00,,,0.00,,2013-04-09 04:32:00,
2013-04-09 00:42:00,62.0,46.0,29.91,SW,222,2.0,5.0,56,0.00,,,0.00,,2013-04-09 04:42:00,
2013-04-09 00:53:00,62.0,46.0,29.91,SW,222,2.0,5.0,56,0.00,,,0.00,,2013-04-09 04:53:00,
2013-04-09 01:02:00,63.0,47.0,29.91,SSE,153,4.0,11.0,55,0.00,,,0.00,,2013-04-09 05:02:00,
2013-04-09 01:12:00,64.0,48.0,29.91,WSW,238,8.0,18.0,56,0.00,,,0.00,,2013-04-09 05:12:00,
2013-04-09 01:22:00,64.0,48.0,29.91,WSW,238,8.0,18.0,56,0.00,,,0.00,,2013-04-09 05:22:00,
2013-04-09 01:32:00,65.0,48.0,29.92,SSE,162,5.0,24.0,54,0.00,,,0.00,,2013-04-09 05:32:00,
2013-04-09 01:43:00,64.0,47.0,29.91,SW,215,4.0,9.0,55,0.00,,,0.00,,2013-04-09 05:43:00,
2013-04-09 01:52:00,64.0,47.0,29.91,SW,215,4.0,9.0,55,0.00,,,0.00,,2013-04-09 05:52:00,
2013-04-09 02:02:00,63.0,48.0,29.92,SW,219,2.0,8.0,58,0.00,,,0.00,,2013-04-09 06:02:00,
2013-04-09 02:12:00,63.0,49.0,29.91,SSW,204,4.0,8.0,60,0.00,,,0.00,,2013-04-09 06:12:00,
2013-04-09 02:22:00,63.0,49.0,29.91,SSW,204,4.0,8.0,60,0.00,,,0.00,,2013-04-09 06:22:00,
2013-04-09 02:32:00,63.0,49.0,29.91,SSE,152,4.0,14.0,61,0.00,,,0.00,,2013-04-09 06:32:00,
2013-04-09 02:42:00,63.0,49.0,29.91,SSE,152,4.0,14.0,61,0.00,,,0.00,,2013-04-09 06:42:00,
2013-04-09 02:52:00,64.0,50.0,29.94,South,174,12.0,23.0,61,0.00,,,0.00,,2013-04-09 06:52:00,
2013-04-09 03:02:00,60.0,51.0,29.92,West,271,6.0,15.0,71,0.01,,,0.01,,2013-04-09 07:02:00,
2013-04-09 03:13:00,60.0,51.0,29.92,West,271,6.0,15.0,71,0.01,,,0.01,,2013-04-09 07:13:00,
2013-04-09 03:22:00,58.0,51.0,29.92,SE,130,1.0,3.0,77,0.01,,,0.01,,2013-04-09 07:22:00,
2013-04-09 03:32:00,57.0,51.0,29.91,South,182,4.0,9.0,80,0.01,,,0.01,,2013-04-09 07:32:00,
2013-04-09 03:42:00,57.0,51.0,29.91,South,182,4.0,9.0,80,0.01,,,0.01,,2013-04-09 07:42:00,
2013-04-09 03:53:00,59.0,50.0,29.92,West,271,5.0,22.0,73,0.02,,,0.02,,2013-04-09 07:53:00,
2013-04-09 04:03:00,60.0,50.0,29.92,WSW,256,4.0,19.0,70,0.01,,,0.02,,2013-04-09 08:03:00,
2013-04-09 04:12:00,60.0,50.0,29.92,WSW,256,4.0,19.0,70,0.01,,,0.02,,2013-04-09 08:12:00,
2013-04-09 04:22:00,59.0,50.0,29.93,WSW,257,9.0,15.0,72,0.01,,,0.02,,2013-04-09 08:22:00,
2013-04-09 04:32:00,59.0,51.0,29.93,South,179,6.0,13.0,74,0.01,,,0.02,,2013-04-09 08:32:00,
2013-04-09 04:42:00,59.0,51.0,29.93,South,179,6.0,13.0,74,0.01,,,0.02,,2013-04-09 08:42:00,
2013-04-09 04:52:00,58.0,50.0,29.93,WSW,240,5.0,14.0,75,0.00,,,0.02,,2013-04-09 08:52:00,
2013-04-09 05:02:00,59.0,51.0,29.93,WSW,252,6.0,16.0,76,0.00,,,0.02,,2013-04-09 09:02:00,
2013-04-09 05:12:00,59.0,51.0,29.93,WSW,252,6.0,16.0,76,0.00,,,0.02,,2013-04-09 09:12:00,
2013-04-09 05:22:00,58.0,51.0,29.94,WSW,245,4.0,14.0,77,0.00,,,0.02,,2013-04-09 09:22:00,
2013-04-09 05:33:00,58.0,52.0,29.94,WSW,251,8.0,12.0,79,0.00,,,0.02,,2013-04-09 09:33:00,
2013-04-09 05:43:00,58.0,52.0,29.94,WSW,251,8.0,12.0,79,0.00,,,0.02,,2013-04-09 09:43:00,
2013-04-09 05:53:00,58.0,52.0,29.94,SSW,195,4.0,11.0,79,0.00,,,0.02,,2013-04-09 09:53:00,
2013-04-09 06:03:00,58.0,52.0,29.95,SW,226,3.0,9.0,79,0.00,,,0.02,,2013-04-09 10:03:00,
2013-04-09 06:13:00,58.0,52.0,29.95,SW,226,3.0,9.0,79,0.00,,,0.02,,2013-04-09 10:13:00,
2013-04-09 06:23:00,57.0,51.0,29.96,West,276,2.0,7.0,80,0.00,,,0.02,,2013-04-09 10:23:00,
2013-04-09 06:33:00,57.0,51.0,29.96,SW,231,2.0,7.0,80,0.00,,,0.02,,2013-04-09 10:33:00,
2013-04-09 06:43:00,57.0,51.0,29.96,SW,231,2.0,7.0,80,0.00,,,0.02,,2013-04-09 10:43:00,
2013-04-09 06:54:00,56.0,49.0,29.96,SSW,210,4.0,12.0,78,0.00,,,0.02,,2013-04-09 10:54:00,
2013-04-09 07:02:00,57.0,50.0,29.97,SW,235,7.0,11.0,76,0.00,,,0.02,,2013-04-09 11:02:00,
2013-04-09 07:12:00,57.0,50.0,29.97,SW,235,7.0,11.0,76,0.00,,,0.02,,2013-04-09 11:12:00,
2013-04-09 07:22:00,57.0,49.0,29.98,SSW,201,7.0,15.0,74,0.00,,,0.02,,2013-04-09 11:22:00,
2013-04-09 07:32:00,57.0,48.0,29.98,SE,136,4.0,13.0,73,0.00,,,0.02,,2013-04-09 11:32:00,
2013-04-09 07:42:00,57.0,48.0,29.98,SE,136,4.0,13.0,73,0.00,,,0.02,,2013-04-09 11:42:00,
2013-04-09 07:52:00,57.0,48.0,30.00,SW,218,6.0,17.0,72,0.00,,,0.02,,2013-04-09 11:52:00,
2013-04-09 08:02:00,57.0,48.0,30.01,West,277,4.0,10.0,71,0.00,,,0.02,,2013-04-09 12:02:00,
2013-04-09 08:12:00,57.0,48.0,30.01,West,277,4.0,10.0,71,0.00,,,0.02,,2013-04-09 12:12:00,
2013-04-09 08:22:00,58.0,48.0,30.02,West,266,5.0,12.0,69,0.00,,,0.02,,2013-04-09 12:22:00,
2013-04-09 08:32:00,58.0,47.0,30.02,West,276,5.0,10.0,68,0.00,,,0.02,,2013-04-09 12:32:00,
2013-04-09 08:42:00,58.0,47.0,30.02,West,276,5.0,10.0,68,0.00,,,0.02,,2013-04-09 12:42:00,
2013-04-09 08:53:00,58.0,47.0,30.03,WSW,249,5.0,8.0,67,0.00,,,0.02,,2013-04-09 12:53:00,
2013-04-09 09:03:00,59.0,47.0,30.04,West,269,5.0,8.0,65,0.00,,,0.02,,2013-04-09 13:03:00,
2013-04-09 09:12:00,59.0,47.0,30.04,West,269,5.0,8.0,65,0.00,,,0.02,,2013-04-09 13:12:00,
2013-04-09 09:23:00,59.0,46.0,30.04,West,259,8.0,12.0,62,0.00,,,0.02,,2013-04-09 13:23:00,
2013-04-09 09:33:00,60.0,46.0,30.04,West,281,8.0,13.0,59,0.00,,,0.02,,2013-04-09 13:33:00,
2013-04-09 09:43:00,60.0,46.0,30.04,West,281,8.0,13.0,59,0.00,,,0.02,,2013-04-09 13:43:00,
2013-04-09 09:53:00,60.0,44.0,30.05,NW,306,5.0,11.0,55,0.00,,,0.02,,2013-04-09 13:53:00,
2013-04-09 10:03:00,60.0,43.0,30.05,West,266,5.0,10.0,53,0.00,,,0.02,,2013-04-09 14:03:00,
2013-04-09 10:12:00,60.0,43.0,30.05,West,266,5.0,10.0,53,0.00,,,0.02,,2013-04-09 14:12:00,
2013-04-09 10:22:00,61.0,43.0,30.06,WSW,241,7.0,12.0,52,0.00,,,0.02,,2013-04-09 14:22:00,
2013-04-09 10:32:00,62.0,43.0,30.06,WNW,300,6.0,9.0,49,0.00,,,0.02,,2013-04-09 14:32:00,
2013-04-09 10:43:00,62.0,43.0,30.06,WNW,300,6.0,9.0,49,0.00,,,0.02,,2013-04-09 14:43:00,
2013-04-09 10:52:00,62.0,43.0,30.07,NW,312,6.0,13.0,50,0.00,,,0.02,,2013-04-09 14:52:00,
2013-04-09 11:02:00,63.0,42.0,30.07,WSW,251,6.0,13.0,46,0.00,,,0.02,,2013-04-09 15:02:00,
2013-04-09 11:13:00,63.0,42.0,30.07,WSW,251,6.0,13.0,46,0.00,,,0.02,,2013-04-09 15:13:00,
2013-04-09 11:23:00,63.0,42.0,30.07,WNW,285,5.0,10.0,46,0.00,,,0.02,,2013-04-09 15:23:00,
2013-04-09 11:33:00,63.0,41.0,30.07,NNW,336,3.0,10.0,45,0.00,,,0.02,,2013-04-09 15:33:00,
2013-04-09 11:43:00,63.0,41.0,30.07,NNW,336,3.0,10.0,45,0.00,,,0.02,,2013-04-09 15:43:00,
2013-04-09 11:54:00,64.0,42.0,30.07,West,259,6.0,12.0,45,0.00,,,0.02,,2013-04-09 15:54:00,
2013-04-09 12:03:00,66.0,43.0,30.06,NE,36,4.0,14.0,44,0.00,,,0.02,,2013-04-09 16:03:00,
2013-04-09 12:13:00,66.0,43.0,30.06,NE,36,4.0,14.0,44,0.00,,,0.02,,2013-04-09 16:13:00,
2013-04-09 12:23:00,66.0,43.0,30.06,West,274,5.0,11.0,43,0.00,,,0.02,,2013-04-09 16:23:00,
2013-04-09 12:33:00,67.0,41.0,30.05,WNW,300,4.0,11.0,39,0.00,,,0.02,,2013-04-09 16:33:00,
2013-04-09 12:42:00,67.0,41.0,30.05,WNW,300,4.0,11.0,39,0.00,,,0.02,,2013-04-09 16:42:00,
2013-04-09 12:54:00,67.0,41.0,30.04,NNE,25,3.0,11.0,38,0.00,,,0.02,,2013-04-09 16:54:00,
2013-04-09 13:02:00,68.0,40.0,30.04,SSW,204,7.0,13.0,36,0.00,,,0.02,,2013-04-09 17:02:00,
2013-04-09 13:13:00,68.0,40.0,30.04,SSW,204,7.0,13.0,36,0.00,,,0.02,,2013-04-09 17:13:00,
2013-04-09 13:23:00,69.0,41.0,30.03,West,277,3.0,9.0,36,0.00,,,0.02,,2013-04-09 17:23:00,
2013-04-09 13:32:00,70.0,42.0,30.03,NW,325,6.0,12.0,36,0.00,,,0.02,,2013-04-09 17:32:00,
2013-04-09 13:43:00,70.0,42.0,30.03,NW,325,6.0,12.0,36,0.00,,,0.02,,2013-04-09 17:43:00,
2013-04-09 13:54:00,70.0,40.0,30.03,SW,225,5.0,13.0,33,0.00,,,0.02,,2013-04-09 17:54:00,
2013-04-09 14:02:00,72.0,41.0,30.02,WNW,283,7.0,14.0,33,0.00,,,0.02,,2013-04-09 18:02:00,
2013-04-09 14:13:00,72.0,41.0,30.02,WNW,283,7.0,14.0,33,0.00,,,0.02,,2013-04-09 18:13:00,
2013-04-09 14:23:00,72.0,41.0,30.01,South,174,3.0,9.0,33,0.00,,,0.02,,2013-04-09 18:23:00,
2013-04-09 14:33:00,72.0,41.0,30.01,WNW,295,8.0,16.0,32,0.00,,,0.02,,2013-04-09 18:33:00,
2013-04-09 14:43:00,72.0,41.0,30.01,WNW,295,8.0,16.0,32,0.00,,,0.02,,2013-04-09 18:43:00,
2013-04-09 14:53:00,72.0,41.0,30.00,West,264,4.0,14.0,32,0.00,,,0.02,,2013-04-09 18:53:00,
2013-04-09 15:03:00,72.0,41.0,30.00,West,264,4.0,14.0,32,0.00,,,0.02,,2013-04-09 19:03:00,
2013-04-09 15:12:00,72.0,41.0,30.00,West,264,4.0,14.0,32,0.00,,,0.02,,2013-04-09 19:12:00,
2013-04-09 15:22:00,72.0,41.0,30.00,West,264,4.0,14.0,32,0.00,,,0.02,,2013-04-09 19:22:00,
2013-04-09 15:32:00,75.0,41.0,29.99,South,174,6.0,12.0,30,0.00,,,0.02,,2013-04-09 19:32:00,
2013-04-09 15:42:00,75.0,41.0,29.99,South,174,6.0,12.0,30,0.00,,,0.02,,2013-04-09 19:42:00,
2013-04-09 15:53:00,75.0,41.0,29.98,WNW,290,9.0,14.0,30,0.00,,,0.02,,2013-04-09 19:53:00,
2013-04-09 16:02:00,75.0,41.0,29.98,WSW,250,7.0,13.0,30,0.00,,,0.02,,2013-04-09 20:02:00,
2013-04-09 16:12:00,75.0,41.0,29.98,WSW,250,7.0,13.0,30,0.00,,,0.02,,2013-04-09 20:12:00,
2013-04-09 16:23:00,75.0,42.0,29.96,West,271,5.0,14.0,31,0.00,,,0.02,,2013-04-09 20:23:00,
2013-04-09 16:43:00,76.0,42.0,29.96,SSW,194,6.0,14.0,30,0.00,,,0.02,,2013-04-09 20:43:00,
2013-04-09 16:53:00,77.0,42.0,29.96,West,268,5.0,9.0,29,0.00,,,0.02,,2013-04-09 20:53:00,
2013-04-09 17:02:00,76.0,42.0,29.96,West,259,7.0,13.0,30,0.00,,,0.02,,2013-04-09 21:02:00,
2013-04-09 17:13:00,76.0,42.0,29.96,West,259,7.0,13.0,30,0.00,,,0.02,,2013-04-09 21:13:00,
2013-04-09 17:23:00,76.0,42.0,29.96,West,259,7.0,13.0,30,0.00,,,0.02,,2013-04-09 21:23:00,
2013-04-09 17:33:00,76.0,44.0,29.95,WSW,239,5.0,19.0,32,0.00,,,0.02,,2013-04-09 21:33:00,
2013-04-09 17:42:00,76.0,44.0,29.95,WSW,239,5.0,19.0,32,0.00,,,0.02,,2013-04-09 21:42:00,
2013-04-09 17:53:00,76.0,45.0,29.95,West,269,4.0,8.0,33,0.00,,,0.02,,2013-04-09 21:53:00,
2013-04-09 18:03:00,76.0,46.0,29.95,West,271,5.0,17.0,34,0.00,,,0.02,,2013-04-09 22:03:00,
2013-04-09 18:13:00,76.0,46.0,29.95,West,271,5.0,17.0,34,0.00,,,0.02,,2013-04-09 22:13:00,
2013-04-09 18:23:00,75.0,47.0,29.96,West,266,4.0,7.0,37,0.00,,,0.02,,2013-04-09 22:23:00,
2013-04-09 18:33:00,74.0,47.0,29.95,SSE,150,4.0,13.0,38,0.00,,,0.02,,2013-04-09 22:33:00,
2013-04-09 18:42:00,74.0,47.0,29.95,SSE,150,4.0,13.0,38,0.00,,,0.02,,2013-04-09 22:42:00,
2013-04-09 18:54:00,75.0,48.0,29.95,SSW,205,3.0,13.0,38,0.00,,,0.02,,2013-04-09 22:54:00,
2013-04-09 19:03:00,74.0,48.0,29.95,WSW,252,3.0,7.0,40,0.00,,,0.02,,2013-04-09 23:03:00,
2013-04-09 19:13:00,74.0,48.0,29.95,WSW,252,3.0,7.0,40,0.00,,,0.02,,2013-04-09 23:13:00,
2013-04-09 19:23:00,73.0,48.0,29.95,SSW,198,1.0,4.0,41,0.00,,,0.02,,2013-04-09 23:23:00,
2013-04-09 19:32:00,71.0,49.0,29.95,SW,228,1.0,4.0,45,0.00,,,0.02,,2013-04-09 23:32:00,
2013-04-09 19:42:00,71.0,49.0,29.95,SW,228,1.0,4.0,45,0.00,,,0.02,,2013-04-09 23:42:00,
2013-04-09 19:53:00,71.0,49.0,29.94,SSE,155,0.0,1.0,45,0.00,,,0.02,,2013-04-09 23:53:00,
2013-04-09 20:03:00,71.0,49.0,29.94,SSE,155,0.0,1.0,45,0.00,,,0.02,,2013-04-10 00:03:00,
2013-04-09 20:12:00,71.0,49.0,29.94,SSE,155,0.0,1.0,45,0.00,,,0.02,,2013-04-10 00:12:00,
2013-04-09 20:23:00,69.0,49.0,29.95,SSE,148,1.0,4.0,49,0.00,,,0.02,,2013-04-10 00:23:00,
2013-04-09 20:33:00,69.0,50.0,29.95,SSW,211,0.0,0.0,50,0.00,,,0.02,,2013-04-10 00:33:00,
2013-04-09 20:42:00,69.0,50.0,29.95,SSW,211,0.0,0.0,50,0.00,,,0.02,,2013-04-10 00:42:00,
2013-04-09 20:53:00,68.0,50.0,29.94,South,176,0.0,0.0,52,0.00,,,0.02,,2013-04-10 00:53:00,
2013-04-09 21:02:00,68.0,50.0,29.93,South,172,0.0,0.0,52,0.00,,,0.02,,2013-04-10 01:02:00,
2013-04-09 21:12:00,67.0,50.0,29.90,SSW,201,1.0,3.0,55,0.00,,,0.02,,2013-04-10 01:12:00,
2013-04-09 21:23:00,67.0,50.0,29.90,SSW,201,1.0,3.0,55,0.00,,,0.02,,2013-04-10 01:23:00,
2013-04-09 21:32:00,67.0,50.0,29.91,SSE,163,0.0,5.0,55,0.00,,,0.02,,2013-04-10 01:32:00,
2013-04-09 21:43:00,67.0,50.0,29.91,SSE,163,0.0,5.0,55,0.00,,,0.02,,2013-04-10 01:43:00,
2013-04-09 21:53:00,66.0,50.0,29.91,SW,214,0.0,4.0,56,0.00,,,0.02,,2013-04-10 01:53:00,
2013-04-09 22:02:00,66.0,50.0,29.91,SW,225,0.0,4.0,57,0.00,,,0.02,,2013-04-10 02:02:00,
2013-04-09 22:13:00,66.0,50.0,29.91,SW,225,0.0,4.0,57,0.00,,,0.02,,2013-04-10 02:13:00,
2013-04-09 22:22:00,66.0,51.0,29.91,SSW,195,0.0,0.0,58,0.00,,,0.02,,2013-04-10 02:22:00,
2013-04-09 22:32:00,66.0,51.0,29.90,West,262,0.0,0.0,58,0.00,,,0.02,,2013-04-10 02:32:00,
2013-04-09 22:43:00,66.0,51.0,29.90,West,262,0.0,0.0,58,0.00,,,0.02,,2013-04-10 02:43:00,
2013-04-09 22:53:00,66.0,51.0,29.89,SW,224,0.0,0.0,59,0.00,,,0.02,,2013-04-10 02:53:00,
2013-04-09 23:03:00,66.0,51.0,29.89,SSW,204,0.0,7.0,59,0.00,,,0.02,,2013-04-10 03:03:00,
2013-04-09 23:12:00,66.0,51.0,29.89,SSW,204,0.0,7.0,59,0.00,,,0.02,,2013-04-10 03:12:00,
2013-04-09 23:22:00,65.0,51.0,29.88,WSW,241,0.0,2.0,60,0.00,,,0.02,,2013-04-10 03:22:00,
2013-04-09 23:33:00,66.0,52.0,29.87,SSE,156,2.0,4.0,60,0.00,,,0.02,,2013-04-10 03:33:00,
2013-04-09 23:43:00,66.0,52.0,29.87,SSE,156,2.0,4.0,60,0.00,,,0.02,,2013-04-10 03:43:00,
2013-04-09 23:53:00,66.0,52.0,29.87,SSW,202,0.0,3.0,61,0.00,,,0.02,,2013-04-10 03:53:00,